Accueil
METAR-TAF:

METAR-TAF

Aéroports :

Plaisance, Italie

latitude: 44-55N, longitude: 009-44E, altitude: 134 m

Observation

Le bulletin a été fait il y a 24 minutes, à 12:55 UTC
Vent 4 kt de nord/nord-est, variant entre nord/nord-ouest et nord-est
Température 7°C
Humidité 87%
Pression 1011 hPa
Visibilité: 4500 m
brume

METAR: LIMS 181255Z 02004KT 330V040 4500 BR NSC 07/05 Q1011 RMK SCT SCT200 VIS MIN 4500 WIND THR30 02004KT GRN

Heure: 14:19 (13:19 UTC)


TAF: absent

Observations et prévisions météorologiques de plus de 4000 aéroports (messages METAR et TAF).

Les stations disponibles sont représentées par des disques jaunes et rouges sur la carte.

Passer la souris dessus pour voir le nom de la station.

Cliquer dessus pour voir les observations et prévisions météorologiques.

Pour changer de carte: cliquez sur les boutons verts avec une croix noire pour zoomer, sur le bouton vert avec un tiret pour effectuer un zoom arrière, ou sur les flèches vertes pour les cartes adjacentes.


METAR-TAF: